Tiempo atmosférico en la estación meteorológica de Figueres, Girona (47 m.)

Fecha
DESCASC
Temp. máxima en grados centígrados (hora)
DESCASC
Temp. mínima en grados centígrados (hora)
DESCASC
Temp. media en grados centígrados
DESCASC
Racha de viento máxima en m/sg (hora)
DESCASC
Velocidad máxima media en intervalos de 10 minutos(hora)
DESCASC
Precipitaciones diarias en mm
DESCASC
Precipitaciones de 00:00 a 06:00 en mm
DESCASC
Precipitaciones de 06:00 a 12:00 en mm
DESCASC
Precipitaciones de 12:00 a 18:00 en mm
DESCASC
Precipitaciones de 18:00 a 24:00 en mm
DESCASC
21-08-2017 30.9 (17:20) 18 (07:50) 24.4 8.33 (02:00) 4.17 (02:00) 0 0 0 0 0
20-08-2017 31.7 (17:00) 20.1 (07:40) 25.9 13.06 (08:50) 6.11 (09:00) 0 0 0 0 0
19-08-2017 30.2 (15:50) 21.8 (06:40) 26 13.06 (05:50) 6.39 (18:10) 0 0 0 0 0
18-08-2017 33.1 (16:00) 21.3 (07:40) 27.2 13.61 (21:10) 6.11 (21:00) 0 0 0 0 0
17-08-2017 33 (14:30) 22.4 (00:00) 27.7 6.67 (17:30) 3.61 (17:30) 0 0 0 0 0
16-08-2017 29.1 (14:00) 20.8 (00:00) 24.9 6.11 (15:30) 3.06 (15:30) 0 0 0 0 0
15-08-2017 29.4 (16:20) 20 (00:00) 24.7 8.06 (15:40) 3.89 (15:40) 0.2 0 0 0 0.2
14-08-2017 33.7 (15:50) 18.6 (06:50) 26.2 10 (15:40) 5.28 (16:00) 0 0 0 0 0
13-08-2017 30.1 (13:00) 18.6 (00:00) 24.4 7.78 (16:20) 3.89 (13:30) 0 0 0 0 0
12-08-2017 29.5 (16:00) 18.6 (00:00) 24.1 8.33 (16:30) 4.44 (16:50) 0 0 0 0 0
11-08-2017 27.1 (15:30) 17.9 (00:00) 22.5 10.28 (04:10) 5.28 (04:10) 0 0 0 0 0
10-08-2017 27.8 (15:30) 17.3 (00:00) 22.5 12.22 (08:00) 5.28 (05:30) 0.6 0 0 0 0.6
09-08-2017 27.8 (13:50) 16.9 (00:00) 22.3 15.56 (16:30) 6.94 (18:50) 0.4 0 0 0 0.4
08-08-2017 26.7 (00:00) 20.1 (00:00) 23.4 15.83 (18:10) 7.22 (16:30) 0 0 0 0 0
07-08-2017 33.3 (17:10) 23.7 (00:00) 28.5 10 (17:40) 5.28 (17:10) 0 0 0 0 0
06-08-2017 31.4 (17:30) 21.9 (00:00) 26.6 14.17 (12:40) 7.22 (10:50) 0.4 0 0.4 0 0
05-08-2017 35.9 (15:00) 26.6 (00:00) 31.3 11.67 (20:20) 5.28 (20:20) 0 0 0 0 0
04-08-2017 37.2 (16:10) 24.6 (00:00) 30.9 7.5 (16:20) 3.61 (23:59) 0 0 0 0 0
03-08-2017 33.7 (14:30) 23.2 (00:00) 28.5 7.5 (15:00) 3.61 (15:00) 0 0 0 0 0
02-08-2017 31.7 (12:40) 21.7 (00:00) 26.7 6.67 (13:30) 3.33 (14:40) 0 0 0 0 0
01-08-2017 33.1 (17:10) 23.4 (00:00) 28.2 11.94 (17:30) 3.89 (17:20) 0 0 0 0 0
31-07-2017 30.4 (13:50) 22 (00:00) 26.2 7.78 (17:50) 3.33 (16:50) 0 0 0 0 0
30-07-2017 30.1 (15:00) 22.4 (00:00) 26.3 6.94 (16:10) 3.61 (16:50) 0 0 0 0 0
29-07-2017 33.6 (15:00) 21.3 (00:00) 27.4 10.28 (15:50) 5 (15:10) 0 0 0 0 0
28-07-2017 30.8 (12:00) 21.8 (00:00) 26.3 8.33 (15:10) 3.61 (16:00) 0 0 0 0 0
27-07-2017 29.8 (19:00) 18.8 (00:00) 24.3 6.94 (00:10) 3.33 (00:10) 0 0 0 0 0
26-07-2017 29.9 (17:10) 19.3 (00:00) 24.6 13.61 (07:50) 6.39 (07:50) 0 0 0 0 0
25-07-2017 -- (--) -- (--) -- -- (--) -- (--) -- -- 0 0 0
24-07-2017 29.3 (14:40) 18.5 (00:00) 23.9 13.06 (23:10) 5.56 (23:40) 0 0 0 0 0
23-07-2017 31.1 (15:20) 19.7 (00:00) 25.4 9.44 (20:20) 4.72 (04:50) 20 0 0 0 20

Gráficas

Temp. máximas Temp. mínimas Temp. medias Precipitaciones Rachas de viento máximas Velocidades máximas media en intervalos de 10 minutos

Datos horarios

Fecha y hora oficial Temperatura (ºC) Velocidad del viento (km/h) Dirección del viento Racha (km/h) Dirección de racha Precipitación (mm) Presión (hPa) Tendencia (hPa) Humedad (%)
2017-08-21 23:00:00 22.8 0 Calma 6 Sudeste 0 -- -- 50
2017-08-21 22:00:00 23.8 3 Sudeste 10 Sudeste 0 -- -- 48
2017-08-21 21:00:00 25.1 0 Calma 10 Sur 0 -- -- 39
2017-08-21 20:00:00 -- 6 Sudoeste 14 Sudoeste 0 -- -- --
2017-08-21 19:00:00 28.5 8 Sur 23 Sur 0 -- -- 33
2017-08-21 18:00:00 30 11 Sur 22 Sudoeste 0 -- -- 29
2017-08-21 17:00:00 30.5 10 Sur 20 Sur 0 -- -- 25
2017-08-21 16:00:00 30.5 7 Sudeste 18 Sudeste 0 -- -- 24
2017-08-21 15:00:00 30.1 7 Sudeste 23 Sur 0 -- -- 24
2017-08-21 14:00:00 29.6 10 Sudeste 27 Sur 0 -- -- 25
2017-08-21 13:00:00 29.5 9 Sudeste 20 Sudeste 0 -- -- 28
2017-08-21 12:00:00 28.9 7 Sudeste 17 Sudeste 0 -- -- 30
2017-08-21 11:00:00 28 4 Este 9 Este 0 -- -- 29
2017-08-21 10:00:00 26 2 Este 8 Nordeste 0 -- -- 36
2017-08-21 09:00:00 22.5 3 Nordeste 9 Oeste 0 -- -- 42
2017-08-21 08:00:00 18.6 4 Norte 16 Sudeste 0 -- -- 57
2017-08-21 07:00:00 19.4 4 Sur 14 Nordeste 0 -- -- 51
2017-08-21 06:00:00 20.5 3 Sur 13 Norte 0 -- -- 47
2017-08-21 05:00:00 22.3 4 Norte 23 Norte 0 -- -- 40
2017-08-21 04:00:00 22.7 5 Norte 27 Nordeste 0 -- -- 38
2017-08-21 03:00:00 23.1 11 Nordeste 30 Nordeste 0 -- -- 36
2017-08-21 02:00:00 23.7 15 Nordeste 30 Nordeste 0 -- -- 35
2017-08-21 01:00:00 23.9 14 Nordeste 30 Nordeste 0 -- -- 34
2017-08-21 00:00:00 24.2 5 Nordeste 28 Nordeste 0 -- -- 32
2017-08-20 23:00:00 25 13 Nordeste 31 Norte 0 -- -- 30
2017-08-20 22:00:00 25.9 11 Nordeste 35 Norte 0 -- -- 30
2017-08-20 21:00:00 27 15 Nordeste 35 Nordeste 0 -- -- 29
2017-08-20 20:00:00 28.6 14 Nordeste 38 Nordeste 0 -- -- 26
2017-08-20 19:00:00 30.6 11 Nordeste 34 Nordeste 0 -- -- 24
2017-08-20 18:00:00 31.3 10 Nordeste 31 Nordeste 0 -- -- 24
2017-08-20 17:00:00 31.7 11 Nordeste 27 Nordeste 0 -- -- 25
2017-08-20 16:00:00 31 13 Nordeste 36 Nordeste 0 -- -- 26
2017-08-20 15:00:00 30.6 16 Nordeste 37 Nordeste 0 -- -- 27
2017-08-20 14:00:00 29.7 10 Nordeste 33 Nordeste 0 -- -- 30
2017-08-20 13:00:00 27.4 19 Nordeste 40 Norte 0 -- -- 34
2017-08-20 12:00:00 26.1 19 Nordeste 41 Norte 0 -- -- 38
2017-08-20 11:00:00 25.1 15 Nordeste 37 Nordeste 0 -- -- 41
2017-08-20 10:00:00 23 17 Nordeste 46 Nordeste 0 -- -- 45
2017-08-20 09:00:00 20.9 22 Nordeste 47 Nordeste 0 -- -- 49
2017-08-20 08:00:00 20.2 19 Nordeste 40 Norte 0 -- -- 50
2017-08-20 07:00:00 20.6 17 Nordeste 38 Nordeste 0 -- -- 50
2017-08-20 06:00:00 21 18 Nordeste 35 Nordeste 0 -- -- 47
2017-08-20 05:00:00 21.6 18 Nordeste 40 Nordeste 0 -- -- 46
2017-08-20 04:00:00 21.8 17 Nordeste 39 Nordeste 0 -- -- 46
2017-08-20 03:00:00 22.1 17 Nordeste 33 Este 0 -- -- 48
2017-08-20 02:00:00 22.5 13 Nordeste 36 Norte 0 -- -- 54
2017-08-20 01:00:00 23 15 Nordeste 31 Nordeste 0 -- -- 56
2017-08-20 00:00:00 23.6 15 Nordeste 37 Nordeste 0 -- -- 54
2017-08-19 23:00:00 24.1 17 Nordeste 39 Nordeste 0 -- -- 52
2017-08-19 22:00:00 24.5 15 Nordeste 41 Nordeste 0 -- -- 51
2017-08-19 21:00:00 25.2 16 Nordeste 42 Nordeste 0 -- -- 50
2017-08-19 20:00:00 26.1 19 Nordeste 42 Este 0 -- -- 48
2017-08-19 19:00:00 27 18 Nordeste 46 Nordeste 0 -- -- 46
2017-08-19 18:00:00 27 19 Nordeste 44 Nordeste 0 -- -- 45
2017-08-19 17:00:00 28.7 15 Nordeste 34 Nordeste 0 -- -- 44
2017-08-19 16:00:00 29.9 14 Nordeste 30 Nordeste 0 -- -- 44
2017-08-19 15:00:00 30.1 10 Norte 28 Norte 0 -- -- 45
2017-08-19 14:00:00 28.4 9 Nordeste 31 Nordeste 0 -- -- 49
2017-08-19 13:00:00 26.7 13 Nordeste 34 Norte 0 -- -- 52
2017-08-19 12:00:00 25.8 17 Nordeste 35 Nordeste 0 -- -- 55
2017-08-19 11:00:00 24 17 Nordeste 39 Norte 0 -- -- 59
2017-08-19 10:00:00 23.5 16 Nordeste 46 Nordeste 0 -- -- 61
2017-08-19 09:00:00 22.9 15 Nordeste 39 Nordeste 0 -- -- 62
2017-08-19 08:00:00 22.2 19 Nordeste 41 Nordeste 0 -- -- 64
2017-08-19 07:00:00 22 18 Nordeste 39 Nordeste 0 -- -- 66
2017-08-19 06:00:00 22.6 19 Nordeste 47 Nordeste 0 -- -- 64
2017-08-19 05:00:00 22.8 21 Nordeste 43 Nordeste 0 -- -- 62
2017-08-19 04:00:00 23.1 21 Nordeste 38 Nordeste 0 -- -- 64
2017-08-19 03:00:00 -- 19 Nordeste 41 Norte 0 -- -- --
2017-08-19 02:00:00 -- 16 Nordeste 43 Norte 0 -- -- --
2017-08-19 01:00:00 24.6 18 Nordeste 37 Nordeste 0 -- -- 66
2017-08-19 00:00:00 24.9 14 Nordeste 38 Nordeste 0 -- -- 65
2017-08-18 23:00:00 25.1 19 Nordeste 47 Norte 0 -- -- 65
2017-08-18 22:00:00 26.1 17 Nordeste 49 Nordeste 0 -- -- 61
2017-08-18 21:00:00 26.6 22 Nordeste 42 Nordeste 0 -- -- 59
2017-08-18 20:00:00 28.7 17 Nordeste 35 Norte 0 -- -- 54
2017-08-18 19:00:00 31.5 6 Sudeste 16 Sur 0 -- -- 48
2017-08-18 18:00:00 32 11 Sudeste 28 Sudeste 0 -- -- 52
2017-08-18 17:00:00 33 12 Sudeste 31 Este 0 -- -- 46
2017-08-18 16:00:00 33.1 12 Este 27 Este 0 -- -- 44
2017-08-18 15:00:00 31.6 11 Sudeste 23 Sudeste 0 -- -- 53
2017-08-18 14:00:00 30.9 9 Sur 25 Sudeste 0 -- -- 55
2017-08-18 13:00:00 31.2 11 Sudeste 25 Sudeste 0 -- -- 51
2017-08-18 12:00:00 31.6 9 Sudeste 20 Sudeste 0 -- -- 50
2017-08-18 11:00:00 30.1 3 Este 8 Este 0 -- -- 51
2017-08-18 10:00:00 27.7 0 Calma 6 Este 0 -- -- 57
2017-08-18 09:00:00 24.7 4 Nordeste 10 Nordeste 0 -- -- 65
2017-08-18 08:00:00 21.9 3 Este 6 Este 0 -- -- 73
2017-08-18 07:00:00 21.6 0 Calma 5 Sudoeste 0 -- -- 76
2017-08-18 06:00:00 21.9 0 Calma 4 Sudoeste 0 -- -- 75
2017-08-18 05:00:00 22.6 0 Calma 4 Sudoeste 0 -- -- 72
2017-08-18 04:00:00 23.2 0 Calma 5 Sudoeste 0 -- -- 71
2017-08-18 03:00:00 23.5 0 Calma 5 Sudoeste 0 -- -- 69
2017-08-18 02:00:00 24.6 0 Calma 4 Sudoeste 0 -- -- 66
2017-08-18 01:00:00 25.5 2 Sudeste 6 Oeste 0 -- -- 63
2017-08-18 00:00:00 26.2 3 Oeste 6 Noroeste 0 -- -- 60
2017-08-17 23:00:00 27.1 2 Sur 7 Nordeste 0 -- -- 57
2017-08-17 22:00:00 27.7 3 Este 13 Nordeste 0 -- -- 55
2017-08-17 21:00:00 28.1 5 Este 10 Sudeste 0 -- -- 54
2017-08-17 20:00:00 29.2 5 Sudeste 14 Este 0 -- -- 52
2017-08-17 19:00:00 31.1 7 Sur 19 Sur 0 -- -- 48
2017-08-17 18:00:00 31.5 10 Sur 24 Sur 0 -- -- 47
2017-08-17 17:00:00 32.2 10 Sur 23 Sur 0 -- -- 46
2017-08-17 16:00:00 32.7 13 Sudoeste 23 Sudoeste 0 -- -- 45
2017-08-17 15:00:00 32.8 11 Sur 22 Sudeste 0 -- -- 46
2017-08-17 14:00:00 32.4 6 Este 16 Sudoeste 0 -- -- 47
2017-08-17 13:00:00 31.5 8 Sur 18 Sur 0 -- -- 49
2017-08-17 12:00:00 30.4 5 Oeste 11 Sur 0 -- -- 51
2017-08-17 11:00:00 29.1 5 Sudeste 10 Sur 0 -- -- 55
2017-08-17 10:00:00 27.1 4 Este 9 Nordeste 0 -- -- 59
2017-08-17 09:00:00 25.2 4 Este 6 Este 0 -- -- 67
2017-08-17 08:00:00 22.4 0 Calma 5 Sudoeste 0 -- -- 76
2017-08-17 07:00:00 22.8 0 Calma 8 Este 0 -- -- 74
2017-08-17 06:00:00 24 3 Norte 15 Nordeste 0 -- -- 69
2017-08-17 05:00:00 24.4 7 Nordeste 21 Nordeste 0 -- -- 68
2017-08-17 04:00:00 23.5 3 Nordeste 11 Nordeste 0 -- -- 73
2017-08-17 03:00:00 23.7 4 Nordeste 10 Norte 0 -- -- 71
2017-08-17 02:00:00 23.9 3 Este 14 Nordeste 0 -- -- 74
2017-08-17 01:00:00 25.7 5 Norte 12 Norte 0 -- -- 64
2017-08-17 00:00:00 25.2 5 Norte 15 Norte 0 -- -- 66
2017-08-16 23:00:00 24.4 0 Calma 9 Sudeste 0 -- -- 67
2017-08-16 22:00:00 25 2 Sudeste 6 Sur 0 -- -- 67
2017-08-16 21:00:00 25.8 2 Sudoeste 9 Sur 0 -- -- 63
2017-08-16 20:00:00 26.9 5 Sur 13 Sur 0 -- -- 59
2017-08-16 19:00:00 28 7 Sur 15 Sur 0 -- -- 55
2017-08-16 18:00:00 28.1 7 Sur 17 Sudoeste 0 -- -- 61
2017-08-16 17:00:00 28.2 8 Sur 17 Sudoeste 0 -- -- 62
2017-08-16 16:00:00 28.9 9 Sur 22 Sur 0 -- -- 60
2017-08-16 15:00:00 29.1 8 Sur 18 Sudoeste 0 -- -- 58
2017-08-16 14:00:00 29.1 8 Sur 19 Sudoeste 0 -- -- 57
2017-08-16 13:00:00 28.3 7 Sur 16 Sur 0 -- -- 60
2017-08-16 12:00:00 28 4 Sudeste 14 Sudeste 0 -- -- 62
2017-08-16 11:00:00 25.7 3 Sur 8 Sur 0 -- -- 72
2017-08-16 10:00:00 22.5 3 Este 10 Nordeste 0 -- -- 88
2017-08-16 09:00:00 21.2 4 Norte 8 Norte 0 -- -- 91
2017-08-16 08:00:00 20.9 0 Calma 6 Noroeste 0 -- -- 94
2017-08-16 07:00:00 21.1 4 Noroeste 6 Noroeste 0 -- -- 93
2017-08-16 06:00:00 21 2 Sudoeste 6 Oeste 0 -- -- 92
2017-08-16 05:00:00 21.1 0 Calma 7 Noroeste 0 -- -- 91
2017-08-16 04:00:00 21.8 3 Oeste 9 Oeste 0 -- -- 88
2017-08-16 03:00:00 22.4 3 Sudoeste 7 Sur 0 -- -- 87
2017-08-16 02:00:00 22.8 3 Este 7 Norte 0 -- -- 84
2017-08-16 01:00:00 23.2 3 Norte 9 Norte 0 -- -- 82
2017-08-16 00:00:00 23.6 2 Norte 5 Noroeste 0 -- -- 80
2017-08-15 23:00:00 23.5 4 Nordeste 11 Sudoeste 0 -- -- 81
2017-08-15 22:00:00 23.3 2 Noroeste 14 Este 0 -- -- 88
2017-08-15 21:00:00 23.6 5 Sudeste 10 Sudeste 0.2 -- -- 88
2017-08-15 20:00:00 24.4 5 Sudeste 16 Sudeste 0 -- -- 84
2017-08-15 19:00:00 25.2 5 Sudeste 20 Sudeste 0 -- -- 82
2017-08-15 18:00:00 25.7 9 Sudeste 26 Sudeste 0 -- -- 79
2017-08-15 17:00:00 27.2 12 Sudeste 23 Sur 0 -- -- 71
2017-08-15 16:00:00 28.5 12 Sudeste 29 Sudeste 0 -- -- 65
2017-08-15 15:00:00 28.6 13 Sudeste 28 Sudeste 0 -- -- 61
2017-08-15 14:00:00 28 12 Sur 24 Sur 0 -- -- 66
2017-08-15 13:00:00 28.2 8 Sur 19 Sur 0 -- -- 66
2017-08-15 12:00:00 27.2 10 Sur 18 Sudoeste 0 -- -- 66
2017-08-15 11:00:00 25.7 6 Sudeste 13 Sur 0 -- -- 69
2017-08-15 10:00:00 23.8 3 Sudoeste 8 Sudoeste 0 -- -- 78
2017-08-15 09:00:00 21.9 3 Oeste 6 Sudoeste 0 -- -- 79
2017-08-15 08:00:00 20.9 3 Oeste 8 Oeste 0 -- -- 82
2017-08-15 07:00:00 20.9 2 Noroeste 12 Nordeste 0 -- -- 87
2017-08-15 06:00:00 20.5 5 Nordeste 13 Nordeste 0 -- -- 89
2017-08-15 05:00:00 20.3 4 Norte 9 Nordeste 0 -- -- 89
2017-08-15 04:00:00 20.4 0 Calma 6 Sur 0 -- -- 84
2017-08-15 03:00:00 21.4 3 Este 5 Nordeste 0 -- -- 87
2017-08-15 02:00:00 21.9 3 Este 7 Nordeste 0 -- -- 83
2017-08-15 01:00:00 -- 4 Sur 8 Sur 0 -- -- --
2017-08-15 00:00:00 23 0 Calma 9 Sudoeste 0 -- -- 77
2017-08-14 23:00:00 23.7 3 Sur 10 Sudoeste 0 -- -- 74
2017-08-14 22:00:00 -- 6 Sur 17 Sudoeste 0 -- -- --
2017-08-14 21:00:00 26.3 11 Sur 21 Sur 0 -- -- 59
2017-08-14 20:00:00 28.4 9 Sur 27 Sur 0 -- -- 52
2017-08-14 19:00:00 30.4 12 Sur 29 Sur 0 -- -- 51
2017-08-14 18:00:00 31.5 16 Sur 34 Sur 0 -- -- 46
2017-08-14 17:00:00 32.7 15 Sur 33 Sur 0 -- -- 40
2017-08-14 16:00:00 33.5 19 Sudoeste 36 Sudoeste 0 -- -- 40
2017-08-14 15:00:00 32.5 12 Sudeste 30 Sudeste 0 -- -- 46
2017-08-14 14:00:00 29.7 10 Sudeste 22 Sudeste 0 -- -- 57
2017-08-14 13:00:00 28.8 9 Sudeste 19 Sur 0 -- -- 60
2017-08-14 12:00:00 28.9 8 Sudeste 15 Sur 0 -- -- 56
2017-08-14 11:00:00 27.6 6 Sur 12 Sudoeste 0 -- -- 57
2017-08-14 10:00:00 25.6 3 Este 9 Sudeste 0 -- -- 62
2017-08-14 09:00:00 23 3 Este 6 Este 0 -- -- 69
2017-08-14 08:00:00 20 3 Oeste 5 Noroeste 0 -- -- 78
2017-08-14 07:00:00 18.7 0 Calma 5 Sudoeste 0 -- -- 82
2017-08-14 06:00:00 19.6 0 Calma 4 Noroeste 0 -- -- 78
2017-08-14 05:00:00 20 0 Calma 6 Sudoeste 0 -- -- 78
2017-08-14 04:00:00 20.5 0 Calma 4 Noroeste 0 -- -- 75
2017-08-14 03:00:00 21 0 Calma 4 Sudoeste 0 -- -- 73
2017-08-14 02:00:00 22 0 Calma 4 Noroeste 0 -- -- 70
2017-08-14 01:00:00 22.9 0 Calma 5 Noroeste 0 -- -- 67
2017-08-14 00:00:00 23.6 3 Noroeste 4 Noroeste 0 -- -- 65
2017-08-13 23:00:00 24.1 2 Norte 6 Norte 0 -- -- 63
2017-08-13 22:00:00 24.3 4 Nordeste 13 Nordeste 0 -- -- 65
2017-08-13 21:00:00 24.6 6 Nordeste 12 Nordeste 0 -- -- 68
2017-08-13 20:00:00 25.4 5 Sudeste 15 Sudeste 0 -- -- 66
2017-08-13 19:00:00 26.4 10 Sudeste 22 Sudeste 0 -- -- 61
2017-08-13 18:00:00 27.1 10 Sudeste 25 Sudeste 0 -- -- 56
2017-08-13 17:00:00 28.2 10 Sudeste 28 Sur 0 -- -- 49
2017-08-13 16:00:00 28.8 11 Sudeste 26 Sur 0 -- -- 46
2017-08-13 15:00:00 28.5 11 Sur 27 Sur 0 -- -- 47
2017-08-13 14:00:00 29 12 Sur 27 Sur 0 -- -- 44
2017-08-13 13:00:00 30.1 12 Sur 24 Sudoeste 0 -- -- 42
2017-08-13 12:00:00 29.2 6 Sur 14 Sudoeste 0 -- -- 43
2017-08-13 11:00:00 27.6 4 Oeste 8 Oeste 0 -- -- 46
2017-08-13 10:00:00 25.8 4 Oeste 10 Noroeste 0 -- -- 49
2017-08-13 09:00:00 23.3 2 Noroeste 16 Norte 0 -- -- 57
2017-08-13 08:00:00 21.2 3 Este 18 Norte 0 -- -- 58
2017-08-13 07:00:00 19 3 Oeste 8 Noroeste 0 -- -- 71
2017-08-13 06:00:00 19 4 Norte 8 Noroeste 0 -- -- 73
2017-08-13 05:00:00 19.5 3 Noroeste 8 Nordeste 0 -- -- 72
2017-08-13 04:00:00 19.6 2 Este 6 Sur 0 -- -- 71
2017-08-13 03:00:00 20 2 Noroeste 8 Noroeste 0 -- -- 71
2017-08-13 02:00:00 20.4 4 Noroeste 10 Noroeste 0 -- -- 71
2017-08-13 01:00:00 21.5 4 Noroeste 11 Oeste 0 -- -- 66
2017-08-13 00:00:00 23 4 Nordeste 8 Nordeste 0 -- -- 51
2017-08-12 23:00:00 23.3 3 Este 8 Nordeste 0 -- -- 65
2017-08-12 22:00:00 24.2 4 Nordeste 12 Oeste 0 -- -- 65
2017-08-12 21:00:00 25.4 4 Oeste 14 Oeste 0 -- -- 61
2017-08-12 20:00:00 26.6 8 Sudoeste 18 Sudoeste 0 -- -- 55
2017-08-12 19:00:00 27.5 12 Sudoeste 26 Sur 0 -- -- 48
2017-08-12 18:00:00 27.9 10 Sur 28 Sur 0 -- -- 41
2017-08-12 17:00:00 28.1 12 Sur 30 Sur 0 -- -- 41
2017-08-12 16:00:00 29.5 11 Sudoeste 22 Sudoeste 0 -- -- 36
2017-08-12 15:00:00 29.1 8 Sur 17 Sudeste 0 -- -- 36
2017-08-12 14:00:00 27.7 7 Este 16 Este 0 -- -- 37
2017-08-12 13:00:00 27.1 7 Sudoeste 13 Sudoeste 0 -- -- 40
2017-08-12 12:00:00 25.6 6 Este 18 Nordeste 0 -- -- 44
2017-08-12 11:00:00 23.7 7 Norte 20 Nordeste 0 -- -- 47
2017-08-12 10:00:00 22.4 9 Nordeste 24 Nordeste 0 -- -- 48
2017-08-12 09:00:00 20.7 13 Nordeste 28 Nordeste 0 -- -- 51
2017-08-12 08:00:00 19.2 10 Nordeste 22 Nordeste 0 -- -- 56
2017-08-12 07:00:00 18.8 10 Nordeste 25 Nordeste 0 -- -- 58
2017-08-12 06:00:00 19.4 12 Nordeste 22 Nordeste 0 -- -- 57
2017-08-12 05:00:00 19.7 10 Nordeste 25 Nordeste 0 -- -- 55
2017-08-12 04:00:00 19.8 10 Nordeste 26 Nordeste 0 -- -- 56
2017-08-12 03:00:00 20.3 9 Nordeste 24 Norte 0 -- -- 54
2017-08-12 02:00:00 21.2 7 Norte 20 Nordeste 0 -- -- 50
2017-08-12 01:00:00 19.9 4 Norte 10 Norte 0 -- -- 59
2017-08-12 00:00:00 20.3 4 Oeste 9 Oeste 0 -- -- 64
2017-08-11 23:00:00 21 0 Calma 6 Noroeste 0 -- -- 63
2017-08-11 22:00:00 21.6 3 Norte 15 Oeste 0 -- -- 61
2017-08-11 21:00:00 22.6 6 Oeste 19 Noroeste 0 -- -- 57
2017-08-11 20:00:00 23.5 10 Nordeste 24 Nordeste 0 -- -- 44
2017-08-11 19:00:00 23.9 12 Nordeste 27 Nordeste 0 -- -- 43
2017-08-11 18:00:00 24.3 10 Nordeste 28 Nordeste 0 -- -- 41
2017-08-11 17:00:00 25.3 14 Nordeste 35 Nordeste 0 -- -- 37
2017-08-11 16:00:00 26.4 15 Nordeste 32 Nordeste 0 -- -- 35
2017-08-11 15:00:00 26.6 10 Nordeste 25 Este 0 -- -- 34
2017-08-11 14:00:00 26.1 7 Este 33 Nordeste 0 -- -- 34
2017-08-11 13:00:00 25.7 9 Norte 20 Norte 0 -- -- 36
2017-08-11 12:00:00 24.7 4 Norte 23 Este 0 -- -- 37
2017-08-11 11:00:00 21.7 11 Nordeste 31 Nordeste 0 -- -- 46
2017-08-11 10:00:00 21.6 13 Nordeste 32 Este 0 -- -- 44
2017-08-11 09:00:00 19.5 8 Norte 28 Norte 0 -- -- 48
2017-08-11 08:00:00 18.6 9 Nordeste 28 Nordeste 0 -- -- 53
2017-08-11 07:00:00 18.2 12 Nordeste 27 Nordeste 0 -- -- 55
2017-08-11 06:00:00 17.9 11 Nordeste 29 Nordeste 0 -- -- 57
2017-08-11 05:00:00 18.1 12 Nordeste 37 Nordeste 0 -- -- 57
2017-08-11 04:00:00 18.4 14 Nordeste 35 Norte 0 -- -- 57
2017-08-11 03:00:00 18.6 14 Nordeste 28 Norte 0 -- -- 56
2017-08-11 02:00:00 18.7 7 Nordeste 21 Nordeste 0 -- -- 60
2017-08-11 01:00:00 18.9 6 Nordeste 14 Nordeste 0 -- -- 74
2017-08-11 00:00:00 19 4 Nordeste 11 Este 0 -- -- 77
2017-08-10 23:00:00 18.6 5 Norte 11 Norte 0.2 -- -- 80
2017-08-10 22:00:00 19.6 4 Oeste 14 Noroeste 0.4 -- -- 77
2017-08-10 21:00:00 21.5 4 Oeste 9 Oeste 0 -- -- 61
2017-08-10 20:00:00 21.5 6 Sudoeste 12 Sudoeste 0 -- -- 61
2017-08-10 19:00:00 23 8 Sudoeste 23 Sudoeste 0 -- -- 56
2017-08-10 18:00:00 24.1 12 Sudoeste 33 Oeste 0 -- -- 55
2017-08-10 17:00:00 24.2 15 Sudoeste 30 Sudoeste 0 -- -- 52
2017-08-10 16:00:00 25.9 13 Sur 26 Este 0 -- -- 42
2017-08-10 15:00:00 26.8 8 Este 20 Sudeste 0 -- -- 34
2017-08-10 14:00:00 26.5 4 Noroeste 20 Sudoeste 0 -- -- 34
2017-08-10 13:00:00 26.2 6 Sur 17 Sudeste 0 -- -- 36
2017-08-10 12:00:00 24.7 5 Oeste 27 Norte 0 -- -- 37
2017-08-10 11:00:00 22.8 12 Norte 31 Nordeste 0 -- -- 41
2017-08-10 10:00:00 19.6 11 Nordeste 33 Nordeste 0 -- -- 48
2017-08-10 09:00:00 18.7 13 Nordeste 34 Norte 0 -- -- 50
2017-08-10 08:00:00 17.9 17 Nordeste 44 Nordeste 0 -- -- 50
2017-08-10 07:00:00 17.5 17 Nordeste 36 Nordeste 0 -- -- 53
2017-08-10 06:00:00 17.8 14 Nordeste 35 Nordeste 0 -- -- 52
2017-08-10 05:00:00 17.7 16 Nordeste 39 Nordeste 0 -- -- 52
2017-08-10 04:00:00 18.1 17 Nordeste 40 Nordeste 0 -- -- 53
2017-08-10 03:00:00 18.9 10 Nordeste 36 Norte 0 -- -- 52
2017-08-10 02:00:00 19.2 15 Nordeste 36 Nordeste 0 -- -- 51
2017-08-10 01:00:00 18.5 12 Nordeste 28 Nordeste 0 -- -- 55
2017-08-10 00:00:00 18 10 Nordeste 46 Nordeste 0.2 -- -- 63
2017-08-09 23:00:00 18 19 Nordeste 49 Nordeste 0 -- -- 62
2017-08-09 22:00:00 17.3 18 Nordeste 45 Norte 0.2 -- -- 66
2017-08-09 21:00:00 18 14 Norte 47 Nordeste 0 -- -- 67
2017-08-09 20:00:00 19.7 18 Nordeste 51 Nordeste 0 -- -- 55
2017-08-09 19:00:00 20.6 22 Nordeste 45 Nordeste 0 -- -- 54
2017-08-09 18:00:00 21.8 18 Nordeste 49 Nordeste 0 -- -- 53
2017-08-09 17:00:00 22.5 23 Nordeste 56 Nordeste 0 -- -- 49
2017-08-09 16:00:00 25.3 20 Nordeste 44 Norte 0 -- -- 41
2017-08-09 15:00:00 26.7 10 Sudeste 25 Sudeste 0 -- -- 41
2017-08-09 14:00:00 27.4 8 Este 21 Sudeste 0 -- -- 38
2017-08-09 13:00:00 26.7 6 Sudeste 14 Este 0 -- -- 38
2017-08-09 12:00:00 25.6 7 Norte 23 Nordeste 0 -- -- 40
2017-08-09 11:00:00 24 12 Nordeste 31 Nordeste 0 -- -- 44
2017-08-09 10:00:00 22.3 17 Nordeste 32 Nordeste 0 -- -- 49
2017-08-09 09:00:00 21.2 15 Nordeste 33 Nordeste 0 -- -- 54
2017-08-09 08:00:00 19.6 7 Nordeste 28 Nordeste 0 -- -- 59
2017-08-09 07:00:00 18.8 10 Nordeste 26 Nordeste 0 -- -- 62
2017-08-09 06:00:00 19.1 11 Nordeste 28 Nordeste 0 -- -- 61
2017-08-09 05:00:00 19.7 14 Nordeste 34 Nordeste 0 -- -- 59
2017-08-09 04:00:00 20.3 14 Nordeste 43 Nordeste 0 -- -- 57
2017-08-09 03:00:00 20.8 18 Nordeste 44 Nordeste 0 -- -- 56
2017-08-09 02:00:00 21.5 17 Nordeste 39 Nordeste 0 -- -- 55
2017-08-09 01:00:00 22.1 14 Nordeste 36 Nordeste 0 -- -- 51
2017-08-09 00:00:00 22.5 15 Nordeste 35 Nordeste 0 -- -- 49
2017-08-08 23:00:00 23 18 Nordeste 46 Nordeste 0 -- -- 46
2017-08-08 22:00:00 23.1 17 Nordeste 46 Nordeste 0 -- -- 46
2017-08-08 21:00:00 23.3 18 Nordeste 42 Norte 0 -- -- 44
2017-08-08 20:00:00 23.7 19 Nordeste 47 Nordeste 0 -- -- 43
2017-08-08 19:00:00 24.1 18 Nordeste 57 Nordeste 0 -- -- 44
2017-08-08 18:00:00 23.9 21 Nordeste 51 Nordeste 0 -- -- 46
2017-08-08 17:00:00 24.5 19 Nordeste 53 Norte 0 -- -- 41
2017-08-08 16:00:00 23.8 18 Nordeste 51 Nordeste 0 -- -- 49
2017-08-08 15:00:00 24.6 22 Nordeste 50 Nordeste 0 -- -- 50
2017-08-08 14:00:00 22.7 14 Nordeste 33 Nordeste 0 -- -- 58
2017-08-08 13:00:00 20.2 8 Nordeste 41 Norte 0 -- -- 75
2017-08-08 12:00:00 23.7 13 Nordeste 34 Nordeste 0 -- -- 49
2017-08-08 11:00:00 22.7 14 Nordeste 37 Nordeste 0 -- -- 54
2017-08-08 10:00:00 22.9 14 Nordeste 39 Nordeste 0 -- -- 56
2017-08-08 09:00:00 22.8 14 Nordeste 34 Nordeste 0 -- -- 59
2017-08-08 08:00:00 22.4 18 Nordeste 34 Norte 0 -- -- 63
2017-08-08 07:00:00 23.1 14 Nordeste 33 Nordeste 0 -- -- 68
2017-08-08 06:00:00 24.5 12 Nordeste 31 Nordeste 0 -- -- 65
2017-08-08 05:00:00 24.4 11 Nordeste 21 Norte 0 -- -- 71
2017-08-08 04:00:00 24.3 5 Norte 19 Nordeste 0 -- -- 75
2017-08-08 03:00:00 25.5 3 Noroeste 8 Sudoeste 0 -- -- 79
2017-08-08 02:00:00 25.9 4 Sudoeste 14 Sudoeste 0 -- -- 77
2017-08-08 01:00:00 26.2 3 Sudoeste 26 Oeste 0 -- -- 74
2017-08-08 00:00:00 26.7 6 Sudoeste 24 Oeste 0 -- -- 71
2017-08-07 23:00:00 27.5 8 Oeste 29 Oeste 0 -- -- 63
2017-08-07 22:00:00 29.1 14 Oeste 28 Oeste 0 -- -- 50
2017-08-07 21:00:00 30.2 14 Oeste 31 Oeste 0 -- -- 47
2017-08-07 20:00:00 31.3 15 Oeste 33 Oeste 0 -- -- 51
2017-08-07 19:00:00 32.9 13 Sudoeste 33 Sudoeste 0 -- -- 51
2017-08-07 18:00:00 33.1 17 Sudoeste 36 Oeste 0 -- -- 52
2017-08-07 17:00:00 33.2 17 Sudoeste 34 Oeste 0 -- -- 51
2017-08-07 16:00:00 29.4 14 Sudeste 31 Sudeste 0 -- -- 58
2017-08-07 15:00:00 29.2 12 Sudeste 32 Sudeste 0 -- -- 54
2017-08-07 14:00:00 28.1 14 Sudeste 29 Sur 0 -- -- 48
2017-08-07 13:00:00 27.9 13 Sudeste 32 Sudeste 0 -- -- 48
2017-08-07 12:00:00 27.8 13 Sudeste 30 Sudeste 0 -- -- 49
2017-08-07 11:00:00 28.3 9 Sur 23 Sudoeste 0 -- -- 46
2017-08-07 10:00:00 27.9 10 Sur 18 Sur 0 -- -- 49
2017-08-07 09:00:00 26 4 Sudeste 7 Sudeste 0 -- -- 58
2017-08-07 08:00:00 24.2 2 Sur 6 Sudoeste 0 -- -- 58
2017-08-07 07:00:00 24.4 0 Calma 6 Norte 0 -- -- 51
2017-08-07 06:00:00 24.6 3 Noroeste 5 Norte 0 -- -- 57
2017-08-07 05:00:00 25.8 4 Noroeste 8 Oeste 0 -- -- 48
2017-08-07 04:00:00 26.2 4 Noroeste 9 Norte 0 -- -- 49
2017-08-07 03:00:00 26.4 5 Norte 12 Norte 0 -- -- 46
2017-08-07 02:00:00 26.6 5 Norte 16 Norte 0 -- -- 45
2017-08-07 01:00:00 26.5 5 Nordeste 20 Norte 0 -- -- 46
2017-08-07 00:00:00 26.3 10 Nordeste 25 Nordeste 0 -- -- 48
2017-08-06 23:00:00 26.4 14 Nordeste 28 Nordeste 0 -- -- 48
2017-08-06 22:00:00 27 17 Nordeste 33 Nordeste 0 -- -- 46
2017-08-06 21:00:00 27.9 14 Nordeste 37 Nordeste 0 -- -- 43
2017-08-06 20:00:00 29.3 15 Nordeste 33 Nordeste 0 -- -- 39
2017-08-06 19:00:00 30.6 18 Nordeste 36 Nordeste 0 -- -- 38
2017-08-06 18:00:00 31.4 15 Nordeste 33 Nordeste 0 -- -- 37
2017-08-06 17:00:00 31.3 17 Nordeste 40 Nordeste 0 -- -- 38
2017-08-06 16:00:00 30.6 17 Nordeste 37 Nordeste 0 -- -- 38
2017-08-06 15:00:00 29.9 18 Nordeste 44 Nordeste 0 -- -- 40
2017-08-06 14:00:00 29 22 Nordeste 49 Nordeste 0 -- -- 42
2017-08-06 13:00:00 27.4 24 Nordeste 51 Nordeste 0 -- -- 47
2017-08-06 12:00:00 24.9 24 Nordeste 51 Nordeste 0.2 -- -- 56
2017-08-06 11:00:00 23.1 22 Nordeste 48 Nordeste 0 -- -- 63
2017-08-06 10:00:00 22.9 4 Norte 40 Nordeste 0 -- -- 74
2017-08-06 09:00:00 22.7 6 Norte 45 Nordeste 0.2 -- -- 81
2017-08-06 08:00:00 23.5 8 Nordeste 28 Nordeste 0 -- -- 68
2017-08-06 07:00:00 24.4 19 Nordeste 43 Norte 0 -- -- 62
2017-08-06 06:00:00 25.1 15 Nordeste 38 Nordeste 0 -- -- 57
2017-08-06 05:00:00 24.7 19 Nordeste 46 Norte 0 -- -- 56
2017-08-06 04:00:00 24.9 21 Nordeste 44 Nordeste 0 -- -- 59
2017-08-06 03:00:00 25.6 19 Nordeste 36 Nordeste 0 -- -- 60
2017-08-06 02:00:00 26 13 Nordeste 33 Nordeste 0 -- -- 62
2017-08-06 01:00:00 26.2 12 Nordeste 34 Nordeste 0 -- -- 62
2017-08-06 00:00:00 27 18 Nordeste 36 Nordeste 0 -- -- 60
2017-08-05 23:00:00 27.4 15 Nordeste 33 Nordeste 0 -- -- 60
2017-08-05 22:00:00 27.9 13 Nordeste 37 Nordeste 0 -- -- 60
2017-08-05 21:00:00 28.6 12 Nordeste 42 Nordeste 0 -- -- 57
2017-08-05 20:00:00 30.2 15 Nordeste 35 Nordeste 0 -- -- 53
2017-08-05 19:00:00 33.2 12 Nordeste 28 Nordeste 0 -- -- 47
2017-08-05 18:00:00 34.7 13 Sudoeste 24 Sur 0 -- -- 42
2017-08-05 17:00:00 35.3 10 Sur 24 Sur 0 -- -- 42
2017-08-05 16:00:00 35.3 9 Sur 26 Sur 0 -- -- 42
2017-08-05 15:00:00 35.9 9 Sur 24 Sur 0 -- -- 42
2017-08-05 14:00:00 35.7 10 Sur 22 Sur 0 -- -- 42
2017-08-05 13:00:00 34.9 9 Sudeste 19 Sudeste 0 -- -- 44
2017-08-05 12:00:00 33.8 7 Sudeste 15 Sudeste 0 -- -- 46
2017-08-05 11:00:00 32.5 5 Sudeste 13 Sudeste 0 -- -- 50
2017-08-05 10:00:00 31.5 3 Este 8 Este 0 -- -- 49
2017-08-05 09:00:00 29.3 4 Este 15 Nordeste 0 -- -- 56
2017-08-05 08:00:00 27.4 7 Nordeste 12 Nordeste 0 -- -- 61
2017-08-05 07:00:00 26.7 4 Nordeste 8 Nordeste 0 -- -- 62
2017-08-05 06:00:00 27.4 2 Sur 10 Nordeste 0 -- -- 60
2017-08-05 05:00:00 28.5 3 Norte 18 Nordeste 0 -- -- 56
2017-08-05 04:00:00 29.5 6 Norte 22 Nordeste 0 -- -- 53
2017-08-05 03:00:00 29.6 8 Norte 22 Nordeste 0 -- -- 53
2017-08-05 02:00:00 29.9 10 Nordeste 24 Nordeste 0 -- -- 52
2017-08-05 01:00:00 30.4 9 Norte 25 Norte 0 -- -- 52
2017-08-05 00:00:00 30.9 13 Nordeste 24 Nordeste 0 -- -- 51
2017-08-04 23:00:00 31.4 10 Nordeste 22 Nordeste 0 -- -- 50
2017-08-04 22:00:00 31.5 6 Este 12 Este 0 -- -- 46
2017-08-04 21:00:00 32.3 3 Sur 10 Sur 0 -- -- 41
2017-08-04 20:00:00 33.4 7 Sur 13 Sudoeste 0 -- -- 40
2017-08-04 19:00:00 34.7 8 Sur 19 Sudoeste 0 -- -- 40
2017-08-04 18:00:00 35.7 10 Sudoeste 22 Sur 0 -- -- 39
2017-08-04 17:00:00 36.8 10 Sur 27 Sudoeste 0 -- -- 38
2017-08-04 16:00:00 37 7 Sudeste 18 Sudeste 0 -- -- 37
2017-08-04 15:00:00 36.6 9 Sur 22 Sur 0 -- -- 38
2017-08-04 14:00:00 36.3 10 Sudeste 21 Sudeste 0 -- -- 38
2017-08-04 13:00:00 35.6 6 Sudeste 14 Sur 0 -- -- 40
2017-08-04 12:00:00 34.9 5 Sudeste 11 Este 0 -- -- 41
2017-08-04 11:00:00 33.4 3 Sudeste 8 Sur 0 -- -- 44
2017-08-04 10:00:00 30.9 3 Este 7 Sur 0 -- -- 53
2017-08-04 09:00:00 27.7 2 Sudeste 6 Sudeste 0 -- -- 64
2017-08-04 08:00:00 25.1 0 Calma 5 Noroeste 0 -- -- 71
2017-08-04 07:00:00 24.7 0 Calma 12 Noroeste 0 -- -- 72
2017-08-04 06:00:00 25.3 4 Noroeste 10 Noroeste 0 -- -- 71
2017-08-04 05:00:00 27.2 3 Sudoeste 15 Nordeste 0 -- -- 62
2017-08-04 04:00:00 28.2 5 Nordeste 20 Norte 0 -- -- 57
2017-08-04 03:00:00 29 10 Nordeste 23 Nordeste 0 -- -- 53
2017-08-04 02:00:00 29.5 10 Nordeste 20 Norte 0 -- -- 54
2017-08-04 01:00:00 29.9 10 Nordeste 20 Norte 0 -- -- 52
2017-08-04 00:00:00 30 9 Nordeste 19 Nordeste 0 -- -- 54
2017-08-03 23:00:00 29 0 Calma 9 Nordeste 0 -- -- 63
2017-08-03 22:00:00 30 0 Calma 5 Este 0 -- -- 65
2017-08-03 21:00:00 30.6 4 Sudoeste 6 Sur 0 -- -- 57
2017-08-03 20:00:00 31.8 4 Sudoeste 10 Sur 0 -- -- 55
2017-08-03 19:00:00 32.4 6 Sur 12 Sur 0 -- -- 53
2017-08-03 18:00:00 31 6 Sur 16 Sur 0 -- -- 61
2017-08-03 17:00:00 31.3 10 Sur 20 Sur 0 -- -- 61
2017-08-03 16:00:00 32.6 9 Sur 23 Sur 0 -- -- 56
2017-08-03 15:00:00 33.6 13 Sudoeste 27 Sudoeste 0 -- -- 55
2017-08-03 14:00:00 32.9 8 Sur 19 Sudeste 0 -- -- 55
2017-08-03 13:00:00 32 11 Este 19 Nordeste 0 -- -- 60
2017-08-03 12:00:00 31.2 7 Este 14 Nordeste 0 -- -- 61
2017-08-03 11:00:00 29.7 4 Este 11 Este 0 -- -- 65
2017-08-03 10:00:00 28 4 Sur 10 Este 0 -- -- 70
2017-08-03 09:00:00 25.7 2 Sur 6 Sur 0 -- -- 82
2017-08-03 08:00:00 23.8 2 Sudoeste 7 Norte 0 -- -- 90
2017-08-03 07:00:00 23.3 7 Nordeste 13 Nordeste 0 -- -- 91
2017-08-03 06:00:00 23.7 3 Norte 7 Norte 0 -- -- 94
2017-08-03 05:00:00 23.6 4 Sudoeste 10 Sur 0 -- -- 95
2017-08-03 04:00:00 23.6 6 Sur 10 Sur 0 -- -- 94
2017-08-03 03:00:00 24 5 Sudoeste 9 Sur 0 -- -- 92
2017-08-03 02:00:00 25.2 0 Calma 6 Sur 0 -- -- 81
2017-08-03 01:00:00 26.4 4 Noroeste 9 Norte 0 -- -- 77
2017-08-03 00:00:00 26.5 0 Calma 9 Este 0 -- -- 82
2017-08-02 23:00:00 26.5 4 Noroeste 9 Sudoeste 0 -- -- 82
2017-08-02 22:00:00 26.5 3 Noroeste 8 Nordeste 0 -- -- 82
2017-08-02 21:00:00 27 5 Sudeste 13 Sudeste 0 -- -- 81
2017-08-02 20:00:00 29.8 5 Sudeste 13 Sudeste 0 -- -- 70
2017-08-02 19:00:00 30.2 3 Sudeste 17 Sudeste 0 -- -- 68
2017-08-02 18:00:00 30.4 8 Sudeste 18 Sudeste 0 -- -- 69
2017-08-02 17:00:00 29.8 6 Sudeste 17 Sudeste 0 -- -- 70
2017-08-02 16:00:00 28.8 8 Sudeste 21 Sur 0 -- -- 71
2017-08-02 15:00:00 29.6 10 Sur 23 Sur 0 -- -- 65
2017-08-02 14:00:00 30.4 7 Sur 24 Sur 0 -- -- 60
2017-08-02 13:00:00 31.1 11 Sur 21 Sudoeste 0 -- -- 57
2017-08-02 12:00:00 30.9 4 Sudoeste 13 Sur 0 -- -- 53
2017-08-02 11:00:00 29.4 6 Sur 14 Sudeste 0 -- -- 58
2017-08-02 10:00:00 27.9 5 Este 12 Nordeste 0 -- -- 62
2017-08-02 09:00:00 25.3 0 Calma 5 Oeste 0 -- -- 67
2017-08-02 08:00:00 22.8 0 Calma 6 Norte 0 -- -- 75
2017-08-02 07:00:00 21.8 3 Sur 4 Sur 0 -- -- 78
2017-08-02 06:00:00 22.4 0 Calma 5 Norte 0 -- -- 78
2017-08-02 05:00:00 22.6 2 Noroeste 12 Oeste 0 -- -- 74
2017-08-02 04:00:00 23.3 6 Noroeste 12 Oeste 0 -- -- 74
2017-08-02 03:00:00 24.2 4 Nordeste 13 Nordeste 0 -- -- 72
2017-08-02 02:00:00 24.8 4 Norte 15 Nordeste 0 -- -- 71
2017-08-02 01:00:00 24.6 3 Oeste 8 Norte 0 -- -- 74
2017-08-02 00:00:00 25.1 5 Nordeste 13 Nordeste 0 -- -- 74
2017-08-01 23:00:00 25.1 5 Nordeste 10 Nordeste 0 -- -- 80
2017-08-01 22:00:00 24.9 3 Nordeste 12 Sudeste 0 -- -- 84
2017-08-01 21:00:00 26 5 Sudeste 19 Sur 0 -- -- 76
2017-08-01 20:00:00 27.2 7 Sudoeste 16 Sur 0 -- -- 73
2017-08-01 19:00:00 27.5 11 Sur 23 Sudoeste 0 -- -- 70
2017-08-01 18:00:00 -- 6 Oeste 43 Noroeste 0 -- -- --
2017-08-01 17:00:00 32.7 8 Oeste 30 Sudoeste 0 -- -- 37
2017-08-01 16:00:00 31.3 8 Sudeste 23 Sudeste 0 -- -- 62
2017-08-01 15:00:00 30.4 6 Sudeste 23 Sudeste 0 -- -- 63
2017-08-01 14:00:00 29.3 5 Sudeste 15 Sur 0 -- -- 66
2017-08-01 13:00:00 29.7 3 Este 13 Sudoeste 0 -- -- 63
2017-08-01 12:00:00 28.7 4 Sur 10 Sur 0 -- -- 66
2017-08-01 11:00:00 27.4 4 Sudeste 13 Nordeste 0 -- -- 71
2017-08-01 10:00:00 26 5 Nordeste 11 Este 0 -- -- 77
2017-08-01 09:00:00 25 5 Este 15 Nordeste 0 -- -- 79
2017-08-01 08:00:00 24.4 0 Calma 9 Nordeste 0 -- -- 84
2017-08-01 07:00:00 23.7 6 Nordeste 18 Nordeste 0 -- -- 86
2017-08-01 06:00:00 23.7 5 Nordeste 10 Norte 0 -- -- 87
2017-08-01 05:00:00 23.6 0 Calma 9 Nordeste 0 -- -- 89
2017-08-01 04:00:00 23.6 5 Nordeste 11 Nordeste 0 -- -- 89
2017-08-01 03:00:00 23.7 3 Norte 9 Nordeste 0 -- -- 88
2017-08-01 02:00:00 23.8 4 Nordeste 12 Nordeste 0 -- -- 91
2017-08-01 01:00:00 23.7 4 Nordeste 10 Nordeste 0 -- -- 91
2017-08-01 00:00:00 23.9 4 Nordeste 9 Nordeste 0 -- -- 91
2017-07-31 23:00:00 24 3 Sudeste 7 Sur 0 -- -- 91
2017-07-31 22:00:00 24.2 4 Sudeste 9 Sur 0 -- -- 90
2017-07-31 21:00:00 25 4 Sudeste 14 Sudeste 0 -- -- 85
2017-07-31 20:00:00 26.2 5 Sur 17 Sudoeste 0 -- -- 79
2017-07-31 19:00:00 27.9 9 Sur 20 Sur 0 -- -- 72
2017-07-31 18:00:00 28.3 9 Sur 28 Sur 0 -- -- 70
2017-07-31 17:00:00 29.4 9 Sur 23 Sur 0 -- -- 65
2017-07-31 16:00:00 29.6 10 Sur 23 Sur 0 -- -- 63
2017-07-31 15:00:00 30.2 11 Sur 22 Sur 0 -- -- 58
2017-07-31 14:00:00 30 10 Sur 22 Sur 0 -- -- 60
2017-07-31 13:00:00 29.1 9 Sudeste 17 Sudeste 0 -- -- 62
2017-07-31 12:00:00 28.3 5 Sudeste 13 Sudeste 0 -- -- 65
2017-07-31 11:00:00 27.1 5 Sur 11 Sur 0 -- -- 66
2017-07-31 10:00:00 25 3 Este 9 Nordeste 0 -- -- 76
2017-07-31 09:00:00 23.6 4 Nordeste 11 Nordeste 0 -- -- 82
2017-07-31 08:00:00 22.7 3 Norte 10 Nordeste 0 -- -- 88
2017-07-31 07:00:00 22.4 4 Nordeste 10 Nordeste 0 -- -- 89
2017-07-31 06:00:00 22.5 5 Nordeste 11 Nordeste 0 -- -- 89
2017-07-31 05:00:00 22.2 3 Este 8 Nordeste 0 -- -- 92
2017-07-31 04:00:00 22.3 5 Este 10 Este 0 -- -- 92
2017-07-31 03:00:00 22.7 2 Norte 7 Norte 0 -- -- 91
2017-07-31 02:00:00 23 0 Calma 9 Nordeste 0 -- -- 90
2017-07-31 01:00:00 23.3 4 Nordeste 9 Este 0 -- -- 89
2017-07-31 00:00:00 23.7 4 Este 11 Este 0 -- -- 87
2017-07-30 23:00:00 24.7 5 Este 12 Este 0 -- -- 82
2017-07-30 22:00:00 25.2 3 Sudeste 9 Sur 0 -- -- 84
2017-07-30 21:00:00 25.8 2 Este 11 Nordeste 0 -- -- 80
2017-07-30 20:00:00 26.6 3 Sur 12 Sudeste 0 -- -- 78
2017-07-30 19:00:00 26.3 7 Sur 17 Sudeste 0 -- -- 79
2017-07-30 18:00:00 26.5 8 Sur 22 Sur 0 -- -- 76
2017-07-30 17:00:00 28.2 13 Sur 25 Sur 0 -- -- 66
2017-07-30 16:00:00 29.7 11 Sur 23 Sur 0 -- -- 62
2017-07-30 15:00:00 30.1 9 Sur 20 Oeste 0 -- -- 61
2017-07-30 14:00:00 29.4 8 Sur 19 Sudeste 0 -- -- 62
2017-07-30 13:00:00 28.9 8 Sudeste 19 Sur 0 -- -- 62
2017-07-30 12:00:00 28.6 8 Sur 15 Sur 0 -- -- 64
2017-07-30 11:00:00 27.3 4 Sur 11 Sudeste 0 -- -- 70
2017-07-30 10:00:00 25.1 4 Sudeste 10 Sudeste 0 -- -- 78
2017-07-30 09:00:00 23.9 4 Noroeste 6 Noroeste 0 -- -- 82
2017-07-30 08:00:00 22.8 2 Sudoeste 4 Sur 0 -- -- 84
2017-07-30 07:00:00 22.5 0 Calma 5 Oeste 0 -- -- 84
2017-07-30 06:00:00 22.8 2 Noroeste 5 Oeste 0 -- -- 83
2017-07-30 05:00:00 23.2 2 Norte 7 Nordeste 0 -- -- 82
2017-07-30 04:00:00 23.3 3 Noroeste 7 Norte 0 -- -- 82
2017-07-30 03:00:00 23.7 4 Nordeste 8 Nordeste 0 -- -- 81
2017-07-30 02:00:00 24 2 Este 12 Nordeste 0 -- -- 81
2017-07-30 01:00:00 24.2 4 Nordeste 10 Sudeste 0 -- -- 83
2017-07-30 00:00:00 24.8 5 Este 10 Este 0 -- -- 86
2017-07-29 23:00:00 25.5 4 Este 11 Este 0 -- -- 81
2017-07-29 22:00:00 26 4 Nordeste 10 Norte 0 -- -- 78
2017-07-29 21:00:00 26.8 5 Este 14 Sudeste 0 -- -- 74
2017-07-29 20:00:00 28.5 8 Este 22 Este 0 -- -- 66
2017-07-29 19:00:00 32.3 6 Sur 23 Sur 0 -- -- 50
2017-07-29 18:00:00 31.8 12 Sur 29 Sudeste 0 -- -- 51
2017-07-29 17:00:00 31.3 11 Sudeste 33 Sur 0 -- -- 52
2017-07-29 16:00:00 33.3 15 Sur 37 Sur 0 -- -- 46
2017-07-29 15:00:00 33.6 14 Sur 36 Sudoeste 0 -- -- 45
2017-07-29 14:00:00 30.3 13 Sudeste 30 Sur 0 -- -- 56
2017-07-29 13:00:00 30.9 12 Sur 24 Sudeste 0 -- -- 53
2017-07-29 12:00:00 30.7 10 Sudoeste 22 Oeste 0 -- -- 50
2017-07-29 11:00:00 29.4 10 Sudoeste 24 Sudoeste 0 -- -- 55
2017-07-29 10:00:00 27 6 Sudoeste 13 Sudoeste 0 -- -- 64
2017-07-29 09:00:00 24.6 0 Calma 6 Este 0 -- -- 73
2017-07-29 08:00:00 22.4 3 Sudoeste 4 Sudoeste 0 -- -- 82
2017-07-29 07:00:00 21.4 0 Calma 3 Sur 0 -- -- 85
2017-07-29 06:00:00 21.6 0 Calma 4 Sudoeste 0 -- -- 84
2017-07-29 05:00:00 21.9 0 Calma 4 Sudoeste 0 -- -- 83
2017-07-29 04:00:00 22.4 0 Calma 7 Oeste 0 -- -- 82
2017-07-29 03:00:00 22.7 4 Este 9 Nordeste 0 -- -- 80
2017-07-29 02:00:00 23.2 3 Noroeste 9 Noroeste 0 -- -- 79
2017-07-29 01:00:00 23.9 4 Sudoeste 9 Oeste 0 -- -- 76
2017-07-29 00:00:00 24.6 5 Este 8 Este 0 -- -- 73
2017-07-28 23:00:00 24.6 2 Sudeste 5 Sudeste 0 -- -- 73
2017-07-28 22:00:00 24.8 3 Sudoeste 8 Sur 0 -- -- 72
2017-07-28 21:00:00 25.4 7 Sudoeste 13 Sur 0 -- -- 70
2017-07-28 20:00:00 26.8 7 Sur 17 Sur 0 -- -- 65
2017-07-28 19:00:00 28 8 Sudeste 23 Sudeste 0 -- -- 61
2017-07-28 18:00:00 28.3 9 Sudeste 26 Sudeste 0 -- -- 60
2017-07-28 17:00:00 28.8 10 Sudeste 25 Sudeste 0 -- -- 59
2017-07-28 16:00:00 28.9 13 Sudeste 30 Sur 0 -- -- 58
2017-07-28 15:00:00 29.8 9 Sur 25 Sur 0 -- -- 56
2017-07-28 14:00:00 30.6 12 Sur 23 Sur 0 -- -- 55
2017-07-28 13:00:00 30.1 9 Sudeste 18 Sur 0 -- -- 56
2017-07-28 12:00:00 30.8 10 Sudoeste 21 Sudoeste 0 -- -- 53
2017-07-28 11:00:00 29.3 4 Sur 14 Sudeste 0 -- -- 56
2017-07-28 10:00:00 28.1 5 Este 8 Este 0 -- -- 57
2017-07-28 09:00:00 26.3 0 Calma 4 Sur 0 -- -- 63
2017-07-28 08:00:00 23.3 2 Sudoeste 4 Noroeste 0 -- -- 71
2017-07-28 07:00:00 22 3 Noroeste 5 Noroeste 0 -- -- 75
2017-07-28 06:00:00 22.2 0 Calma 4 Nordeste 0 -- -- 74
2017-07-28 05:00:00 22.7 0 Calma 7 Norte 0 -- -- 71
2017-07-28 04:00:00 23.5 0 Calma 8 Nordeste 0 -- -- 70
2017-07-28 03:00:00 23.6 4 Nordeste 10 Este 0 -- -- 74
2017-07-28 02:00:00 24.3 2 Noroeste 9 Oeste 0 -- -- 67
2017-07-28 01:00:00 25.2 4 Noroeste 8 Noroeste 0 -- -- 66
2017-07-28 00:00:00 26.3 3 Oeste 6 Noroeste 0 -- -- 65
2017-07-27 23:00:00 27.4 4 Norte 10 Norte 0 -- -- 61
2017-07-27 22:00:00 28.1 3 Este 6 Sudeste 0 -- -- 57
2017-07-27 21:00:00 28.3 4 Este 10 Sudeste 0 -- -- 59
2017-07-27 20:00:00 29.1 5 Sudeste 14 Sudeste 0 -- -- 56
2017-07-27 19:00:00 29.8 7 Sudeste 18 Sudeste 0 -- -- 56
2017-07-27 18:00:00 29.5 9 Sudeste 19 Sudeste 0 -- -- 51
2017-07-27 17:00:00 29.4 8 Sudeste 19 Sur 0 -- -- 59
2017-07-27 16:00:00 28.6 11 Sudeste 22 Sudeste 0 -- -- 57
2017-07-27 15:00:00 28.9 10 Sur 21 Sudoeste 0 -- -- 55
2017-07-27 14:00:00 29 11 Sur 18 Sur 0 -- -- 50
2017-07-27 13:00:00 29.1 7 Sudeste 17 Sudoeste 0 -- -- 51
2017-07-27 12:00:00 28 6 Sur 15 Sudeste 0 -- -- 53
2017-07-27 11:00:00 26.8 5 Sur 12 Sudeste 0 -- -- 56
2017-07-27 10:00:00 25.5 4 Sur 8 Sudeste 0 -- -- 59
2017-07-27 09:00:00 23.4 0 Calma 5 Noroeste 0 -- -- 65
2017-07-27 08:00:00 20.2 4 Noroeste 6 Oeste 0 -- -- 75
2017-07-27 07:00:00 19.2 0 Calma 7 Noroeste 0 -- -- 75
2017-07-27 06:00:00 19.2 3 Noroeste 7 Oeste 0 -- -- 77
2017-07-27 05:00:00 20.5 3 Noroeste 9 Noroeste 0 -- -- 72
2017-07-27 04:00:00 20.4 4 Noroeste 12 Noroeste 0 -- -- 71
2017-07-27 03:00:00 22.6 3 Norte 21 Nordeste 0 -- -- 62
2017-07-27 02:00:00 23 11 Nordeste 22 Nordeste 0 -- -- 60
2017-07-27 01:00:00 23.4 3 Norte 25 Nordeste 0 -- -- 62
2017-07-27 00:00:00 24.3 13 Nordeste 37 Norte 0 -- -- 55
2017-07-26 23:00:00 25 14 Nordeste 39 Norte 0 -- -- 52
2017-07-26 22:00:00 25.9 17 Nordeste 35 Nordeste 0 -- -- 48
2017-07-26 21:00:00 26.7 15 Nordeste 34 Nordeste 0 -- -- 45
2017-07-26 20:00:00 28 13 Nordeste 32 Norte 0 -- -- 40
2017-07-26 19:00:00 29.6 10 Nordeste 32 Nordeste 0 -- -- 36
2017-07-26 18:00:00 29.8 14 Nordeste 29 Nordeste 0 -- -- 35
2017-07-26 17:00:00 29.7 9 Nordeste 27 Norte 0 -- -- 35
2017-07-26 16:00:00 29.2 13 Nordeste 35 Norte 0 -- -- 36
2017-07-26 15:00:00 28.7 13 Nordeste 36 Este 0 -- -- 38
2017-07-26 14:00:00 27.6 15 Nordeste 36 Nordeste 0 -- -- 39
2017-07-26 13:00:00 26.6 16 Nordeste 35 Nordeste 0 -- -- 41
2017-07-26 12:00:00 25.1 16 Nordeste 36 Nordeste 0 -- -- 44
2017-07-26 11:00:00 24.4 14 Nordeste 39 Norte 0 -- -- 47
2017-07-26 10:00:00 22.8 15 Nordeste 41 Nordeste 0 -- -- 51
2017-07-26 09:00:00 20.7 18 Nordeste 44 Norte 0 -- -- 58
2017-07-26 08:00:00 20.1 21 Nordeste 49 Norte 0 -- -- 60
2017-07-26 07:00:00 19.4 18 Nordeste 47 Nordeste 0 -- -- 61
2017-07-26 06:00:00 19.3 18 Nordeste 46 Nordeste 0 -- -- 61
2017-07-26 05:00:00 19.8 22 Nordeste 44 Nordeste 0 -- -- 60
2017-07-26 04:00:00 20.5 16 Nordeste 39 Nordeste 0 -- -- 58
2017-07-26 03:00:00 21.1 18 Nordeste 45 Nordeste 0 -- -- 58
2017-07-26 02:00:00 21.8 20 Nordeste 44 Nordeste 0 -- -- 58
2017-07-26 01:00:00 22.4 18 Nordeste 43 Norte 0 -- -- 58
2017-07-26 00:00:00 23.1 13 Nordeste 30 Nordeste 0 -- -- 55
2017-07-25 23:00:00 23.8 8 Norte 22 Norte 0 -- -- 52
2017-07-25 22:00:00 24.1 6 Oeste 17 Noroeste 0 -- -- 65
2017-07-25 21:00:00 24.8 10 Oeste 30 Nordeste 0 -- -- 63
2017-07-25 20:00:00 27 9 Norte 45 Nordeste 0 -- -- 39
2017-07-25 19:00:00 27.8 17 Nordeste 46 Nordeste 0 -- -- 38
2017-07-25 18:00:00 27.9 21 Nordeste 50 Nordeste 0 -- -- 37
2017-07-25 17:00:00 27.2 24 Nordeste 51 Nordeste 0 -- -- 36
2017-07-25 16:00:00 27.7 15 Nordeste 49 Nordeste 0 -- -- 38
2017-07-25 15:00:00 27.9 23 Nordeste 47 Nordeste 0 -- -- 38
2017-07-25 14:00:00 28 14 Nordeste 38 Nordeste 0 -- -- 39
2017-07-25 13:00:00 27.8 15 Nordeste 37 Nordeste 0 -- -- 37
2017-07-25 12:00:00 27.6 11 Nordeste 29 Nordeste 0 -- -- 37
2017-07-25 11:00:00 26.7 11 Nordeste 27 Norte 0 -- -- 39
2017-07-25 10:00:00 25.4 9 Nordeste 26 Nordeste 0 -- -- 40
2017-07-25 09:00:00 24.3 12 Nordeste 31 Norte 0 -- -- 40
2017-07-25 08:00:00 21.3 10 Nordeste 27 Este 0 -- -- 49
2017-07-25 07:00:00 19.8 9 Este 35 Nordeste 0 -- -- 55
2017-07-25 06:00:00 19.8 19 Nordeste 44 Nordeste 0 -- -- 58
2017-07-25 05:00:00 19.9 18 Nordeste 45 Nordeste 0 -- -- 62
2017-07-25 04:00:00 20 22 Nordeste 49 Norte 0 -- -- 63
2017-07-25 03:00:00 20.7 17 Nordeste 45 Nordeste 0 -- -- 62
2017-07-25 02:00:00 21.2 19 Nordeste 46 Nordeste 0 -- -- 61
2017-07-25 01:00:00 -- -- -- -- -- -- -- -- --
2017-07-25 00:00:00 22.3 18 Nordeste 47 Nordeste 0 -- -- 56
2017-07-24 23:00:00 22.8 16 Nordeste 41 Nordeste 0 -- -- 57
2017-07-24 22:00:00 23.6 16 Nordeste 43 Nordeste 0 -- -- 57
2017-07-24 21:00:00 24.8 17 Nordeste 44 Nordeste 0 -- -- 54
2017-07-24 20:00:00 25.8 18 Nordeste 42 Norte 0 -- -- 53
2017-07-24 19:00:00 27.8 12 Este 33 Nordeste 0 -- -- 50
2017-07-24 18:00:00 28.2 10 Sudeste 24 Sudeste 0 -- -- 57
2017-07-24 17:00:00 28.4 11 Sur 21 Sur 0 -- -- 58
2017-07-24 16:00:00 27.5 10 Sur 24 Sur 0 -- -- 60
2017-07-24 15:00:00 29.3 9 Sur 21 Sudeste 0 -- -- 57
2017-07-24 14:00:00 28.4 7 Este 18 Norte 0 -- -- 56
2017-07-24 13:00:00 28.4 5 Norte 15 Sudoeste 0 -- -- 52
2017-07-24 12:00:00 26.9 5 Oeste 13 Oeste 0 -- -- 57
2017-07-24 11:00:00 25.5 4 Noroeste 13 Sudoeste 0 -- -- 63
2017-07-24 10:00:00 23.4 6 Sur 11 Sudoeste 0 -- -- 73
2017-07-24 09:00:00 21.6 2 Noroeste 5 Sudoeste 0 -- -- 79
2017-07-24 08:00:00 19.9 2 Este 6 Este 0 -- -- 86
2017-07-24 07:00:00 18.7 3 Oeste 8 Noroeste 0 -- -- 91
2017-07-24 06:00:00 18.8 4 Noroeste 10 Noroeste 0 -- -- 92
2017-07-24 05:00:00 19.6 3 Sudoeste 8 Este 0 -- -- 90
2017-07-24 04:00:00 19.9 0 Calma 8 Nordeste 0 -- -- 89
2017-07-24 03:00:00 19.6 2 Norte 8 Noroeste 0 -- -- 92
2017-07-24 02:00:00 19.8 4 Noroeste 10 Noroeste 0 -- -- 91
2017-07-24 01:00:00 20.3 3 Norte 13 Norte 0 -- -- 84
2017-07-24 00:00:00 20.7 5 Nordeste 14 Nordeste 0 -- -- 80
2017-07-23 23:00:00 20.2 4 Norte 28 Este 0.4 -- -- 92
2017-07-23 22:00:00 20 13 Este 24 Este 6.4 -- -- 93
2017-07-23 21:00:00 20.4 5 Noroeste 34 Nordeste 13.2 -- -- 91
2017-07-23 20:00:00 25.4 9 Nordeste 26 Nordeste 0 -- -- 55
2017-07-23 19:00:00 28.1 6 Este 17 Sudeste 0 -- -- 49
2017-07-23 18:00:00 29.2 7 Sur 22 Sudeste 0 -- -- 47
2017-07-23 17:00:00 29.9 9 Sur 22 Sudeste 0 -- -- 47
2017-07-23 16:00:00 30.3 11 Sur 21 Sudoeste 0 -- -- 48
2017-07-23 15:00:00 31 8 Sudeste 21 Sudeste 0 -- -- 48
2017-07-23 14:00:00 30.5 7 Sudeste 19 Sudeste 0 -- -- 49
2017-07-23 13:00:00 30.1 8 Sur 18 Sudeste 0 -- -- 50
2017-07-23 12:00:00 29 5 Este 17 Este 0 -- -- 51
2017-07-23 11:00:00 27.6 6 Nordeste 27 Norte 0 -- -- 54
2017-07-23 10:00:00 25.5 15 Nordeste 30 Nordeste 0 -- -- 58
2017-07-23 09:00:00 24 15 Nordeste 30 Nordeste 0 -- -- 63
2017-07-23 08:00:00 23.7 13 Nordeste 33 Nordeste 0 -- -- 64
2017-07-23 07:00:00 23 13 Nordeste 27 Nordeste 0 -- -- 65
2017-07-23 06:00:00 23.3 13 Nordeste 30 Nordeste 0 -- -- 64
2017-07-23 05:00:00 23.7 15 Nordeste 31 Nordeste 0 -- -- 63
2017-07-23 04:00:00 24.4 15 Nordeste 30 Nordeste 0 -- -- 61
2017-07-23 03:00:00 25.4 12 Nordeste 27 Nordeste 0 -- -- 57
2017-07-23 02:00:00 25.6 11 Nordeste 26 Nordeste 0 -- -- 56
2017-07-23 01:00:00 25.3 11 Nordeste 22 Nordeste 0 -- -- 58
2017-07-23 00:00:00 25.3 10 Nordeste 21 Este 0 -- -- 62